Shingleton, Michigan
Current Conditions -  °F | °C
As of 7:54 PM on Friday 24 Oct 2014 (Local Time) from KISQ Reporting Station
Haze Haze  
Wind Chill: 45°   Ceiling: 500
Heat Index: 49°   Visibility: 4mi
Dew Point: 48°   Wind: 9mph
Humidity: 95%   Direction: 210°SSW
Pressure: 29.88"   Gusts: NA
Location:  46.35°N, 86.47°W
Report Text: KISQ 242354Z AUTO 21008KT 4SM BR OVC005 10/09 A2988 RMK AO2 T00950088
Loading
Personal Weather Stations






























Interactive Weather Map
Tropical Storm Tracking
New forecast layout! Learn more

10-Day Weather Forecast

Advertisements
Track Severe Weather on mobile